Terminal Aerodrome Forecast
Issued by NWS Central Illinois

Home | Current Version | Previous Version | Text Only | Print | Product List | Glossary On
Versions: 1 2 3 4 5 6 7 8 9 10 11 12 13 14 15 16 17 18 19 20 21
533
FTUS43 KILX 282015 AAA
TAFPIA
TAF AMD
KPIA 282015Z 2820/2918 03007KT P6SM OVC025
     FM290400 06007KT 6SM BR OVC015
     FM290900 06007KT 4SM BR OVC006
     FM291500 08012KT P6SM VCSH OVC015=

USA.gov is the U.S. government's official web portal to all federal, state and local government web resources and services.